createdAt,value
2018-11-13T00:01:44.692Z,21.37
2018-11-13T00:04:10.705Z,21.36
2018-11-13T00:06:36.710Z,21.37
2018-11-13T00:09:02.716Z,21.35
2018-11-13T00:11:28.808Z,21.35
2018-11-13T00:13:54.730Z,21.35
2018-11-13T00:16:20.738Z,21.35
2018-11-13T00:18:46.766Z,21.34
2018-11-13T00:21:12.750Z,21.34
2018-11-13T00:23:38.764Z,21.34
2018-11-13T00:26:04.775Z,21.35
2018-11-13T00:28:30.783Z,21.34
2018-11-13T00:30:56.830Z,21.33
2018-11-13T00:33:22.779Z,21.33
2018-11-13T00:35:48.777Z,21.32
2018-11-13T00:38:14.762Z,21.31
2018-11-13T00:40:40.751Z,21.32
2018-11-13T00:43:06.737Z,21.31
2018-11-13T00:45:32.785Z,21.31
2018-11-13T00:47:58.754Z,21.31
2018-11-13T00:50:24.762Z,21.30
2018-11-13T00:52:50.743Z,21.30
2018-11-13T00:55:16.730Z,21.30
2018-11-13T00:57:42.728Z,21.29
2018-11-13T01:00:08.731Z,21.29
2018-11-13T01:02:34.743Z,21.29
2018-11-13T01:05:00.769Z,21.29
2018-11-13T01:07:26.741Z,21.28
2018-11-13T01:09:52.767Z,21.28
2018-11-13T01:12:18.751Z,21.28
2018-11-13T01:14:44.797Z,21.28
2018-11-13T01:17:10.784Z,21.28
2018-11-13T01:19:36.761Z,21.27
2018-11-13T01:22:02.907Z,21.27
2018-11-13T01:24:29.058Z,21.26
2018-11-13T01:26:55.012Z,21.27
2018-11-13T01:29:21.023Z,21.26
2018-11-13T01:31:47.002Z,21.26
2018-11-13T01:34:12.985Z,21.26
2018-11-13T01:36:38.991Z,21.26
2018-11-13T01:39:04.991Z,21.25
2018-11-13T01:41:31.018Z,21.25
2018-11-13T01:43:57.006Z,21.26
2018-11-13T01:46:22.992Z,21.24
2018-11-13T01:48:48.971Z,21.24
2018-11-13T01:51:14.990Z,21.24
2018-11-13T01:53:40.967Z,21.25
2018-11-13T01:56:06.947Z,21.24
2018-11-13T01:58:33.222Z,21.23
2018-11-13T02:00:58.940Z,21.23
2018-11-13T02:03:24.943Z,21.24
2018-11-13T02:05:50.951Z,21.23
2018-11-13T02:08:16.937Z,21.23
2018-11-13T02:10:42.920Z,21.23
2018-11-13T02:13:08.949Z,21.23
2018-11-13T02:15:34.956Z,21.23
2018-11-13T02:18:00.963Z,21.23
2018-11-13T02:20:26.949Z,21.22
2018-11-13T02:22:52.934Z,21.23
2018-11-13T02:25:18.946Z,21.23
2018-11-13T02:27:44.946Z,21.22
2018-11-13T02:30:10.970Z,21.22
2018-11-13T02:32:36.967Z,21.22
2018-11-13T02:35:02.971Z,21.22
2018-11-13T02:37:28.987Z,21.22
2018-11-13T02:39:54.969Z,21.21
2018-11-13T02:42:20.957Z,21.21
2018-11-13T02:44:46.938Z,21.21
2018-11-13T02:47:13.142Z,21.20
2018-11-13T02:49:38.967Z,21.21
2018-11-13T02:52:04.956Z,21.22
2018-11-13T02:54:30.941Z,21.21
2018-11-13T02:56:56.950Z,21.21
2018-11-13T02:59:22.958Z,21.20
2018-11-13T03:01:48.973Z,21.20
2018-11-13T03:04:14.954Z,21.20
2018-11-13T03:06:40.933Z,21.20
2018-11-13T03:09:06.922Z,21.20
2018-11-13T03:11:32.928Z,21.19
2018-11-13T03:13:59.017Z,21.20
2018-11-13T03:16:24.922Z,21.20
2018-11-13T03:18:50.911Z,21.19
2018-11-13T03:21:16.898Z,21.18
2018-11-13T03:23:42.901Z,21.18
2018-11-13T03:26:08.942Z,21.18
2018-11-13T03:28:34.943Z,21.18
2018-11-13T03:31:00.943Z,21.19
2018-11-13T03:33:26.922Z,21.17
2018-11-13T03:35:52.931Z,21.18
2018-11-13T03:38:18.926Z,21.16
2018-11-13T03:40:44.942Z,21.17
2018-11-13T03:43:10.952Z,21.17
2018-11-13T03:45:36.979Z,21.17
2018-11-13T03:48:03.004Z,21.17
2018-11-13T03:50:28.995Z,21.17
2018-11-13T03:52:54.981Z,21.17
2018-11-13T03:55:20.958Z,21.16
2018-11-13T03:57:46.935Z,21.16
2018-11-13T04:00:12.985Z,21.16
2018-11-13T04:02:38.965Z,21.15
2018-11-13T04:05:04.953Z,21.15
2018-11-13T04:07:30.961Z,21.14
2018-11-13T04:09:56.948Z,21.17
2018-11-13T04:12:22.957Z,21.15
2018-11-13T04:14:48.936Z,21.16
2018-11-13T04:17:14.986Z,21.15
2018-11-13T04:19:40.985Z,21.16
2018-11-13T04:22:06.994Z,21.14
2018-11-13T04:24:33.007Z,21.14
2018-11-13T04:26:59.029Z,21.15
2018-11-13T04:29:25.045Z,21.15
2018-11-13T04:31:51.063Z,21.15
2018-11-13T04:34:17.066Z,21.13
2018-11-13T04:36:43.073Z,21.12
2018-11-13T04:39:09.083Z,21.13
2018-11-13T04:41:35.068Z,21.13
2018-11-13T04:44:01.051Z,21.13
2018-11-13T04:46:27.055Z,21.13
2018-11-13T04:48:53.061Z,21.13
2018-11-13T04:51:19.082Z,21.13
2018-11-13T04:53:45.054Z,21.13
2018-11-13T04:56:11.055Z,21.13
2018-11-13T04:58:37.043Z,21.11
2018-11-13T05:01:03.050Z,21.12
2018-11-13T05:03:29.055Z,21.12
2018-11-13T05:05:55.069Z,21.12
2018-11-13T05:08:21.059Z,21.12
2018-11-13T05:10:47.066Z,21.12
2018-11-13T05:13:13.112Z,21.12
2018-11-13T05:15:39.134Z,21.12
2018-11-13T05:18:05.146Z,21.12
2018-11-13T05:20:31.141Z,21.12
2018-11-13T05:22:57.146Z,21.10
2018-11-13T05:25:23.148Z,21.11
2018-11-13T05:27:49.161Z,21.12
2018-11-13T05:30:15.207Z,21.13
2018-11-13T05:32:41.217Z,21.13
2018-11-13T05:35:07.204Z,21.13
2018-11-13T05:37:33.216Z,21.14
2018-11-13T05:39:59.232Z,21.14
2018-11-13T05:42:25.249Z,21.17
2018-11-13T05:44:51.248Z,21.18
2018-11-13T05:47:17.278Z,21.22
2018-11-13T05:49:43.265Z,21.20
2018-11-13T05:52:09.268Z,21.21
2018-11-13T05:54:35.274Z,21.22
2018-11-13T05:57:01.292Z,21.21
2018-11-13T05:59:27.305Z,21.18
2018-11-13T06:01:53.314Z,21.20
2018-11-13T06:04:19.332Z,21.23
2018-11-13T06:06:45.339Z,21.23
2018-11-13T06:09:11.359Z,21.25
2018-11-13T06:11:37.314Z,21.22
2018-11-13T06:14:03.377Z,21.22
2018-11-13T06:16:29.299Z,21.21
2018-11-13T06:18:55.277Z,21.21
2018-11-13T06:21:21.283Z,21.19
2018-11-13T06:23:47.288Z,21.18
2018-11-13T06:26:13.338Z,21.17
2018-11-13T06:28:39.323Z,21.18
2018-11-13T06:31:05.371Z,21.18
2018-11-13T06:33:31.382Z,21.17
2018-11-13T06:35:57.386Z,21.17
2018-11-13T06:38:23.532Z,21.16
2018-11-13T06:40:49.611Z,21.14
2018-11-13T06:43:15.620Z,21.15
2018-11-13T06:45:41.608Z,21.15
2018-11-13T06:48:07.608Z,21.15
2018-11-13T06:50:33.594Z,21.16
2018-11-13T06:52:59.602Z,21.17
2018-11-13T06:55:25.608Z,21.17
2018-11-13T06:57:51.599Z,21.18
2018-11-13T07:00:17.597Z,21.22
2018-11-13T07:02:43.587Z,21.22
2018-11-13T07:05:09.802Z,21.23
2018-11-13T07:07:35.819Z,21.24
2018-11-13T07:10:02.230Z,21.25
2018-11-13T07:12:28.461Z,21.26
2018-11-13T07:14:54.480Z,21.25
2018-11-13T07:17:20.470Z,21.27
2018-11-13T07:19:46.486Z,21.27
2018-11-13T07:22:12.469Z,21.26
2018-11-13T07:24:38.494Z,21.27
2018-11-13T07:27:04.542Z,21.27
2018-11-13T07:29:30.535Z,21.25
2018-11-13T07:31:56.568Z,21.25
2018-11-13T07:34:22.602Z,21.24
2018-11-13T07:36:48.575Z,21.25
2018-11-13T07:39:14.686Z,21.26
2018-11-13T07:41:40.686Z,21.28
2018-11-13T07:44:06.731Z,21.27
2018-11-13T07:46:32.753Z,21.28
2018-11-13T07:48:58.723Z,21.28
2018-11-13T07:51:24.744Z,21.29
2018-11-13T07:53:50.773Z,21.27
2018-11-13T07:56:16.806Z,21.26
2018-11-13T07:58:42.856Z,21.25
2018-11-13T08:01:08.904Z,21.25
2018-11-13T08:03:34.912Z,21.24
2018-11-13T08:06:00.886Z,21.23
2018-11-13T08:08:26.895Z,21.24
2018-11-13T08:10:53.090Z,21.25
2018-11-13T08:13:19.190Z,21.24
2018-11-13T08:15:45.065Z,21.24
2018-11-13T08:18:11.055Z,21.24
2018-11-13T08:20:37.064Z,21.24
2018-11-13T08:23:03.083Z,21.24
2018-11-13T08:25:29.094Z,21.24
2018-11-13T08:27:55.071Z,21.23
2018-11-13T08:30:21.083Z,21.24
2018-11-13T08:32:47.082Z,21.23
2018-11-13T08:35:13.134Z,21.24
2018-11-13T08:37:39.138Z,21.26
2018-11-13T08:40:05.145Z,21.25
2018-11-13T08:42:31.123Z,21.25
2018-11-13T08:44:57.163Z,21.25
2018-11-13T08:47:23.168Z,21.24
2018-11-13T08:49:49.148Z,21.23
2018-11-13T08:52:15.159Z,21.24
2018-11-13T08:54:41.218Z,21.24
2018-11-13T08:57:07.273Z,21.26
2018-11-13T08:59:33.292Z,21.28
2018-11-13T09:01:59.239Z,21.27
2018-11-13T09:04:25.225Z,21.26
2018-11-13T09:06:51.209Z,21.25
2018-11-13T09:09:17.209Z,21.26
2018-11-13T09:11:43.288Z,21.25
2018-11-13T09:14:09.193Z,21.27
2018-11-13T09:16:35.172Z,21.28
2018-11-13T09:19:01.348Z,21.28
2018-11-13T09:21:27.182Z,21.29
2018-11-13T09:23:53.228Z,21.29
2018-11-13T09:26:19.213Z,21.29
2018-11-13T09:28:45.188Z,21.31
2018-11-13T09:31:11.317Z,21.30
2018-11-13T09:33:37.330Z,21.31
2018-11-13T09:36:03.279Z,21.34
2018-11-13T09:38:29.301Z,21.37
2018-11-13T09:40:55.309Z,21.39
2018-11-13T09:43:21.323Z,21.41
2018-11-13T09:45:47.312Z,21.42
2018-11-13T09:48:13.321Z,21.44
2018-11-13T09:50:39.321Z,21.44
2018-11-13T09:53:05.660Z,21.45
2018-11-13T09:55:31.675Z,21.45
2018-11-13T09:57:57.704Z,21.45
2018-11-13T10:00:23.758Z,21.46
2018-11-13T10:02:50.230Z,21.44
2018-11-13T10:05:16.198Z,21.46
2018-11-13T10:07:41.743Z,21.48
2018-11-13T10:10:07.753Z,21.46
2018-11-13T10:12:33.717Z,21.46
2018-11-13T10:14:59.703Z,21.47
2018-11-13T10:17:25.772Z,21.50
2018-11-13T10:19:51.713Z,21.51
2018-11-13T10:22:17.722Z,21.53
2018-11-13T10:24:43.718Z,21.53
2018-11-13T10:27:09.769Z,21.53
2018-11-13T10:29:35.749Z,21.55
2018-11-13T10:32:01.735Z,21.56
2018-11-13T10:34:27.815Z,21.56
2018-11-13T10:36:53.807Z,21.56
2018-11-13T10:39:19.797Z,21.56
2018-11-13T10:41:45.802Z,21.56
2018-11-13T10:44:11.787Z,21.56
2018-11-13T10:46:37.794Z,21.56
2018-11-13T10:49:03.822Z,21.56
2018-11-13T10:51:29.793Z,21.58
2018-11-13T10:53:55.807Z,21.57
2018-11-13T10:56:21.877Z,21.58
2018-11-13T10:58:47.842Z,21.59
2018-11-13T11:01:13.854Z,21.62
2018-11-13T11:03:39.841Z,21.61
2018-11-13T11:06:05.826Z,21.60
2018-11-13T11:08:31.800Z,21.61
2018-11-13T11:10:57.825Z,21.62
2018-11-13T11:13:24.012Z,21.62
2018-11-13T11:15:49.839Z,21.62
2018-11-13T11:18:15.941Z,21.63
2018-11-13T11:20:41.881Z,21.63
2018-11-13T11:23:07.957Z,21.65
2018-11-13T11:25:33.853Z,21.62
2018-11-13T11:27:59.885Z,21.63
2018-11-13T11:30:25.875Z,21.63
2018-11-13T11:32:51.862Z,21.65
2018-11-13T11:35:17.876Z,21.65
2018-11-13T11:37:43.885Z,21.66
2018-11-13T11:40:09.870Z,21.67
2018-11-13T11:42:35.841Z,21.68
2018-11-13T11:45:01.828Z,21.69
2018-11-13T11:47:27.862Z,21.70
2018-11-13T11:49:53.875Z,21.70
2018-11-13T11:52:19.857Z,21.70
2018-11-13T11:54:45.874Z,21.71
2018-11-13T11:57:11.851Z,21.73
2018-11-13T11:59:37.838Z,21.74
2018-11-13T12:02:03.890Z,21.76
2018-11-13T12:04:29.914Z,21.78
2018-11-13T12:06:55.913Z,21.78
2018-11-13T12:09:21.933Z,21.77
2018-11-13T12:11:48.043Z,21.78
2018-11-13T12:14:14.051Z,21.79
2018-11-13T12:16:40.045Z,21.82
2018-11-13T12:19:06.096Z,21.83
2018-11-13T12:21:32.080Z,21.84
2018-11-13T12:23:58.033Z,21.86
2018-11-13T12:26:24.024Z,21.88
2018-11-13T12:28:50.024Z,21.89
2018-11-13T12:31:16.044Z,21.91
2018-11-13T12:33:42.039Z,21.94
2018-11-13T12:36:08.038Z,21.98
2018-11-13T12:38:34.028Z,21.98
2018-11-13T12:41:00.061Z,21.99
2018-11-13T12:43:26.021Z,22.01
2018-11-13T12:45:52.004Z,22.01
2018-11-13T12:48:17.990Z,22.05
2018-11-13T12:50:43.976Z,22.05
2018-11-13T12:53:09.981Z,22.06
2018-11-13T12:55:36.049Z,22.04
2018-11-13T12:58:02.000Z,22.04
2018-11-13T13:00:28.009Z,22.05
2018-11-13T13:02:54.024Z,22.05
2018-11-13T13:05:20.007Z,22.05
2018-11-13T13:07:46.099Z,22.06
2018-11-13T13:10:12.016Z,22.06
2018-11-13T13:12:38.031Z,22.04
2018-11-13T13:15:04.035Z,22.04
2018-11-13T13:17:30.018Z,22.06
2018-11-13T13:19:56.038Z,22.05
2018-11-13T13:22:22.060Z,22.06
2018-11-13T13:24:48.003Z,22.03
2018-11-13T13:27:14.038Z,22.02
2018-11-13T13:29:40.163Z,22.00
2018-11-13T13:32:06.170Z,22.01
2018-11-13T13:34:32.181Z,22.07
2018-11-13T13:36:58.161Z,22.02
2018-11-13T13:39:24.145Z,22.01
2018-11-13T13:41:50.167Z,22.02
2018-11-13T13:44:16.211Z,22.02
2018-11-13T13:46:42.204Z,22.02
2018-11-13T13:49:08.182Z,21.98
2018-11-13T13:51:34.192Z,21.99
2018-11-13T13:54:00.308Z,21.99
2018-11-13T13:56:26.199Z,21.95
2018-11-13T13:58:52.191Z,21.95
2018-11-13T14:01:18.264Z,21.94
2018-11-13T14:03:44.272Z,21.91
2018-11-13T14:06:10.326Z,21.92
2018-11-13T14:08:36.292Z,21.92
2018-11-13T14:11:02.328Z,21.92
2018-11-13T14:13:28.313Z,21.92
2018-11-13T14:15:54.334Z,21.92
2018-11-13T14:18:20.332Z,21.90
2018-11-13T14:20:46.332Z,21.89
2018-11-13T14:23:12.322Z,21.88
2018-11-13T14:25:38.341Z,21.85
2018-11-13T14:28:04.338Z,21.86
2018-11-13T14:30:30.382Z,21.87
2018-11-13T14:32:56.363Z,21.86
2018-11-13T14:35:22.370Z,21.86
2018-11-13T14:37:48.416Z,21.86
2018-11-13T14:40:14.422Z,21.83
2018-11-13T14:42:40.434Z,21.81
2018-11-13T14:45:06.449Z,21.84
2018-11-13T14:47:32.515Z,21.82
2018-11-13T14:49:58.486Z,21.82
2018-11-13T14:52:24.493Z,21.80
2018-11-13T14:54:50.482Z,21.79
2018-11-13T14:57:16.544Z,21.78
2018-11-13T14:59:42.528Z,21.75
2018-11-13T15:02:08.513Z,21.75
2018-11-13T15:04:34.495Z,21.72
2018-11-13T15:07:00.512Z,21.70
2018-11-13T15:09:26.850Z,21.70
2018-11-13T15:11:52.557Z,21.70
2018-11-13T15:14:18.541Z,21.68
2018-11-13T15:16:44.523Z,21.67
2018-11-13T15:19:10.521Z,21.64
2018-11-13T15:21:36.684Z,21.64
2018-11-13T15:24:02.553Z,21.64
2018-11-13T15:26:28.558Z,21.64
2018-11-13T15:28:54.544Z,21.62
2018-11-13T15:31:20.557Z,21.60
2018-11-13T15:33:46.565Z,21.60
2018-11-13T15:36:12.577Z,21.60
2018-11-13T15:38:38.589Z,21.58
2018-11-13T15:41:04.587Z,21.58
2018-11-13T15:43:30.579Z,21.56
2018-11-13T15:45:56.575Z,21.55
2018-11-13T15:48:22.556Z,21.53
2018-11-13T15:50:48.575Z,21.54
2018-11-13T15:53:14.612Z,21.51
2018-11-13T15:55:40.609Z,21.51
2018-11-13T15:58:06.662Z,21.51
2018-11-13T16:00:32.696Z,21.51
2018-11-13T16:02:58.714Z,21.51
2018-11-13T16:05:24.834Z,21.51
2018-11-13T16:07:50.822Z,21.50
2018-11-13T16:10:16.876Z,21.50
2018-11-13T16:12:42.890Z,21.46
2018-11-13T16:15:08.942Z,21.49
2018-11-13T16:17:34.885Z,21.47
2018-11-13T16:20:00.872Z,21.47
2018-11-13T16:22:26.905Z,21.47
2018-11-13T16:24:52.931Z,21.44
2018-11-13T16:27:18.917Z,21.45
2018-11-13T16:29:44.956Z,21.44
2018-11-13T16:32:10.932Z,21.44
2018-11-13T16:34:36.972Z,21.46
2018-11-13T16:37:03.039Z,21.48
2018-11-13T16:39:28.958Z,21.47
2018-11-13T16:41:54.992Z,21.45
2018-11-13T16:44:20.955Z,21.48
2018-11-13T16:46:46.957Z,21.50
2018-11-13T16:49:12.950Z,21.50
2018-11-13T16:51:38.970Z,21.50
2018-11-13T16:54:05.025Z,21.50
2018-11-13T16:56:31.022Z,21.50
2018-11-13T16:58:57.009Z,21.46
2018-11-13T17:01:23.170Z,21.49
2018-11-13T17:03:49.212Z,21.44
2018-11-13T17:06:15.120Z,21.44
2018-11-13T17:08:41.088Z,21.44
2018-11-13T17:11:07.104Z,21.46
2018-11-13T17:13:33.047Z,21.44
2018-11-13T17:15:59.031Z,21.45
2018-11-13T17:18:27.105Z,21.45
2018-11-13T17:20:53.344Z,21.46
2018-11-13T17:23:19.336Z,21.45
2018-11-13T17:25:45.354Z,21.44
2018-11-13T17:28:11.363Z,21.44
2018-11-13T17:30:37.360Z,21.44
2018-11-13T17:33:03.343Z,21.44
2018-11-13T17:35:29.362Z,21.43
2018-11-13T17:37:55.381Z,21.42
2018-11-13T17:40:21.327Z,21.41
2018-11-13T17:42:47.320Z,21.40
2018-11-13T17:45:13.308Z,21.40
2018-11-13T17:47:39.361Z,21.37
2018-11-13T17:50:05.414Z,21.39
2018-11-13T17:52:31.405Z,21.40
2018-11-13T17:54:57.416Z,21.41
2018-11-13T17:57:23.406Z,21.39
2018-11-13T17:59:49.397Z,21.39
2018-11-13T18:02:15.380Z,21.42
2018-11-13T18:04:41.363Z,21.46
2018-11-13T18:07:07.375Z,21.48
2018-11-13T18:09:33.410Z,21.51
2018-11-13T18:11:59.422Z,21.54
2018-11-13T18:14:25.445Z,21.55
2018-11-13T18:16:51.441Z,21.58
2018-11-13T18:19:17.441Z,21.59
2018-11-13T18:21:43.488Z,21.62
2018-11-13T18:24:09.459Z,21.64
2018-11-13T18:26:35.513Z,21.64
2018-11-13T18:29:01.514Z,21.63
2018-11-13T18:31:27.524Z,21.63
2018-11-13T18:33:53.558Z,21.64
2018-11-13T18:36:19.580Z,21.63
2018-11-13T18:38:45.714Z,21.64
2018-11-13T18:41:11.560Z,21.60
2018-11-13T18:43:37.634Z,21.58
2018-11-13T18:46:03.645Z,21.55
2018-11-13T18:48:29.688Z,21.57
2018-11-13T18:50:55.699Z,21.57
2018-11-13T18:53:21.923Z,21.57
2018-11-13T18:55:47.901Z,21.55
2018-11-13T18:58:13.948Z,21.56
2018-11-13T19:00:40.123Z,21.55
2018-11-13T19:03:06.325Z,21.55
2018-11-13T19:05:32.307Z,21.55
2018-11-13T19:07:58.295Z,21.55
2018-11-13T19:10:24.354Z,21.53
2018-11-13T19:12:50.587Z,21.51
2018-11-13T19:15:16.370Z,21.50
2018-11-13T19:17:42.451Z,21.52
2018-11-13T19:20:08.597Z,21.53
2018-11-13T19:22:34.461Z,21.53
2018-11-13T19:25:00.555Z,21.53
2018-11-13T19:27:26.576Z,21.52
2018-11-13T19:29:52.676Z,21.52
2018-11-13T19:32:18.685Z,21.50
2018-11-13T19:34:44.674Z,21.48
2018-11-13T19:37:10.718Z,21.47
2018-11-13T19:39:36.695Z,21.49
2018-11-13T19:42:02.680Z,21.50
2018-11-13T19:44:28.747Z,21.50
2018-11-13T19:46:54.735Z,21.51
2018-11-13T19:49:20.762Z,21.50
2018-11-13T19:51:46.707Z,21.52
2018-11-13T19:54:12.876Z,21.52
2018-11-13T19:56:38.754Z,21.50
2018-11-13T19:59:04.766Z,21.49
2018-11-13T20:01:30.776Z,21.51
2018-11-13T20:03:56.815Z,21.50
2018-11-13T20:06:22.804Z,21.50
2018-11-13T20:08:48.856Z,21.51
2018-11-13T20:11:14.864Z,21.50
2018-11-13T20:13:40.895Z,21.52
2018-11-13T20:16:06.963Z,21.58
2018-11-13T20:18:32.891Z,21.74
2018-11-13T20:20:58.899Z,21.67
2018-11-13T20:23:24.957Z,21.64
2018-11-13T20:25:50.915Z,21.61
2018-11-13T20:28:16.888Z,21.60
2018-11-13T20:30:42.966Z,21.59
2018-11-13T20:33:08.909Z,21.58
2018-11-13T20:35:34.968Z,21.59
2018-11-13T20:38:01.493Z,21.58
2018-11-13T20:40:27.496Z,21.56
2018-11-13T20:42:53.549Z,21.56
2018-11-13T20:45:19.601Z,21.55
2018-11-13T20:47:45.670Z,21.56
2018-11-13T20:50:14.628Z,21.56
2018-11-13T20:52:40.634Z,21.54
2018-11-13T20:55:06.682Z,21.53
2018-11-13T20:57:32.692Z,21.53
2018-11-13T20:59:58.714Z,21.52
2018-11-13T21:02:24.894Z,21.53
2018-11-13T21:04:50.804Z,21.53
2018-11-13T21:07:16.870Z,21.51
2018-11-13T21:09:42.910Z,21.52
2018-11-13T21:12:08.892Z,21.50
2018-11-13T21:14:34.854Z,21.50
2018-11-13T21:17:01.013Z,21.47
2018-11-13T21:19:26.861Z,21.46
2018-11-13T21:21:52.843Z,21.45
2018-11-13T21:24:18.855Z,21.46
2018-11-13T21:26:44.837Z,21.45
2018-11-13T21:29:12.414Z,21.43
2018-11-13T21:31:39.265Z,21.44
2018-11-13T21:34:05.793Z,21.42
2018-11-13T21:36:31.812Z,21.42
2018-11-13T21:38:57.796Z,21.42
2018-11-13T21:41:23.775Z,21.41
2018-11-13T21:43:49.782Z,21.40
2018-11-13T21:46:15.792Z,21.40
2018-11-13T21:48:41.782Z,21.39
2018-11-13T21:51:07.769Z,21.39
2018-11-13T21:53:33.778Z,21.38
2018-11-13T21:55:59.760Z,21.38
2018-11-13T21:58:27.727Z,21.38
2018-11-13T22:00:53.743Z,21.37
2018-11-13T22:03:19.724Z,21.36
2018-11-13T22:05:45.710Z,21.36
2018-11-13T22:08:11.855Z,21.36
2018-11-13T22:10:37.808Z,21.35
2018-11-13T22:13:03.849Z,21.34
2018-11-13T22:15:29.812Z,21.34
2018-11-13T22:17:55.813Z,21.33
2018-11-13T22:20:21.831Z,21.33
2018-11-13T22:22:47.833Z,21.32
2018-11-13T22:25:13.847Z,21.31
2018-11-13T22:27:39.887Z,21.31
2018-11-13T22:30:05.912Z,21.31
2018-11-13T22:32:31.927Z,21.30
2018-11-13T22:34:57.951Z,21.29
2018-11-13T22:37:24.049Z,21.30
2018-11-13T22:39:50.068Z,21.31
2018-11-13T22:42:15.987Z,21.29
2018-11-13T22:44:42.350Z,21.29
2018-11-13T22:47:08.352Z,21.28
2018-11-13T22:49:34.341Z,21.28
2018-11-13T22:52:00.369Z,21.28
2018-11-13T22:54:26.393Z,21.28
2018-11-13T22:56:52.392Z,21.29
2018-11-13T22:59:18.371Z,21.28
2018-11-13T23:01:44.439Z,21.28
2018-11-13T23:04:10.960Z,21.28
2018-11-13T23:06:36.962Z,21.28
2018-11-13T23:09:02.966Z,21.28
2018-11-13T23:11:28.948Z,21.28
2018-11-13T23:13:54.932Z,21.27
2018-11-13T23:16:20.949Z,21.27
2018-11-13T23:18:46.929Z,21.26
2018-11-13T23:21:12.930Z,21.26
2018-11-13T23:23:38.956Z,21.26
2018-11-13T23:26:04.943Z,21.26
2018-11-13T23:28:30.950Z,21.26
2018-11-13T23:30:56.999Z,21.26
2018-11-13T23:33:23.011Z,21.26
2018-11-13T23:35:49.039Z,21.25
2018-11-13T23:38:14.980Z,21.25
2018-11-13T23:40:40.986Z,21.26
2018-11-13T23:43:07.022Z,21.27
2018-11-13T23:45:33.008Z,21.25
2018-11-13T23:47:59.001Z,21.25
2018-11-13T23:50:25.313Z,21.24
2018-11-13T23:52:51.012Z,21.24
2018-11-13T23:55:17.015Z,21.24
2018-11-13T23:57:43.008Z,21.24
